createdAt,value
2023-03-02T00:02:48.512Z,1.90
2023-03-02T00:07:50.274Z,1.87
2023-03-02T00:12:52.404Z,1.84
2023-03-02T00:17:54.108Z,1.84
2023-03-02T00:22:56.050Z,1.89
2023-03-02T00:28:02.410Z,1.90
2023-03-02T00:33:04.176Z,1.89
2023-03-02T00:38:09.188Z,1.83
2023-03-02T00:43:10.887Z,1.86
2023-03-02T00:48:14.969Z,1.83
2023-03-02T00:53:18.253Z,1.80
2023-03-02T00:58:21.253Z,1.77
2023-03-02T01:03:23.369Z,1.75
2023-03-02T01:08:27.964Z,1.80
2023-03-02T01:13:29.714Z,1.73
2023-03-02T01:18:33.000Z,1.69
2023-03-02T01:23:34.731Z,1.55
2023-03-02T01:28:36.716Z,1.52
2023-03-02T01:33:43.242Z,1.37
2023-03-02T01:38:47.623Z,1.37
2023-03-02T01:43:49.410Z,1.41
2023-03-02T01:49:11.781Z,1.36
2023-03-02T01:54:27.651Z,1.33
2023-03-02T01:59:33.889Z,1.29
2023-03-02T02:04:37.788Z,1.30
2023-03-02T02:09:44.786Z,1.27
2023-03-02T02:14:47.202Z,1.14
2023-03-02T02:20:07.327Z,1.06
2023-03-02T02:25:37.342Z,1.05
2023-03-02T02:30:42.857Z,1.08
2023-03-02T02:35:50.249Z,1.07
2023-03-02T02:40:53.978Z,0.96
2023-03-02T02:46:00.721Z,0.94
2023-03-02T02:51:03.227Z,0.92
2023-03-02T02:56:09.694Z,0.78
2023-03-02T03:01:16.561Z,0.82
2023-03-02T03:06:25.687Z,0.77
2023-03-02T03:11:36.468Z,0.70
2023-03-02T03:16:44.101Z,0.69
2023-03-02T03:21:53.836Z,0.61
2023-03-02T03:26:57.671Z,0.55
2023-03-02T03:32:01.703Z,0.46
2023-03-02T03:37:10.373Z,0.33
2023-03-02T03:42:15.177Z,0.37
2023-03-02T03:47:17.459Z,0.32
2023-03-02T03:52:30.707Z,0.35
2023-03-02T03:57:43.009Z,0.20
2023-03-02T04:02:48.425Z,0.08
2023-03-02T04:07:50.565Z,0.06
2023-03-02T04:12:55.998Z,0.08
2023-03-02T04:18:00.372Z,0.07
2023-03-02T04:23:04.428Z,0.05
2023-03-02T04:28:06.204Z,0.08
2023-03-02T04:33:11.905Z,0.10
2023-03-02T04:38:16.317Z,0.07
2023-03-02T04:43:22.924Z,0.10
2023-03-02T04:48:29.419Z,0.04
2023-03-02T04:53:33.361Z,0.04
2023-03-02T04:58:37.566Z,0.13
2023-03-02T05:03:41.795Z,0.06
2023-03-02T05:08:49.270Z,0.09
2023-03-02T05:13:55.390Z,0.05
2023-03-02T05:19:00.242Z,0.05
2023-03-02T05:24:05.043Z,0.07
2023-03-02T05:29:06.734Z,0.08
2023-03-02T05:34:13.862Z,0.05
2023-03-02T05:39:17.828Z,0.05
2023-03-02T05:44:24.094Z,0.12
2023-03-02T05:49:30.259Z,0.10
2023-03-02T05:54:36.677Z,0.09
2023-03-02T05:59:38.518Z,0.03
2023-03-02T06:04:43.140Z,0.11
2023-03-02T06:09:44.941Z,0.18
2023-03-02T06:14:48.929Z,0.13
2023-03-02T06:19:52.940Z,0.16
2023-03-02T06:24:57.762Z,0.15
2023-03-02T06:29:59.538Z,0.13
2023-03-02T06:35:05.522Z,0.11
2023-03-02T06:40:13.966Z,0.40
2023-03-02T06:45:15.797Z,0.30
2023-03-02T06:50:19.624Z,0.22
2023-03-02T06:55:21.427Z,0.26
2023-03-02T07:00:29.174Z,0.27
2023-03-02T07:05:33.838Z,0.25
2023-03-02T07:10:38.052Z,0.34
2023-03-02T07:15:41.928Z,0.36
2023-03-02T07:20:43.666Z,0.40
2023-03-02T07:25:50.244Z,0.46
2023-03-02T07:30:53.317Z,0.48
2023-03-02T07:35:55.111Z,0.56
2023-03-02T07:40:56.852Z,0.59
2023-03-02T07:46:06.555Z,0.65
2023-03-02T07:51:10.878Z,0.74
2023-03-02T07:56:14.784Z,0.78
2023-03-02T08:01:18.948Z,0.72
2023-03-02T08:06:23.135Z,0.83
2023-03-02T08:11:27.228Z,0.86
2023-03-02T08:16:29.668Z,0.98
2023-03-02T08:21:34.256Z,1.13
2023-03-02T08:26:38.987Z,1.19
2023-03-02T08:31:40.866Z,1.29
2023-03-02T08:36:47.535Z,1.38
2023-03-02T08:41:52.748Z,1.41
2023-03-02T08:46:56.660Z,1.51
2023-03-02T08:51:59.264Z,1.68
2023-03-02T08:57:04.972Z,1.84
2023-03-02T09:02:07.412Z,1.87
2023-03-02T09:07:09.213Z,1.79
2023-03-02T09:12:10.909Z,1.94
2023-03-02T09:17:15.492Z,2.06
2023-03-02T09:22:19.810Z,2.21
2023-03-02T09:27:21.526Z,2.32
2023-03-02T09:32:25.801Z,2.47
2023-03-02T09:37:28.335Z,2.55
2023-03-02T09:42:55.598Z,2.63
2023-03-02T09:48:02.550Z,2.51
2023-03-02T09:53:24.933Z,2.59
2023-03-02T09:58:32.148Z,2.56
2023-03-02T10:03:38.828Z,2.62
2023-03-02T10:08:43.305Z,2.55
2023-03-02T10:13:52.349Z,2.51
2023-03-02T10:19:06.030Z,2.56
2023-03-02T10:24:34.856Z,2.80
2023-03-02T10:29:51.563Z,2.90
2023-03-02T10:34:56.238Z,3.01
2023-03-02T10:40:00.496Z,2.85
2023-03-02T10:45:27.503Z,2.91
2023-03-02T10:50:30.661Z,3.01
2023-03-02T10:55:34.997Z,2.95
2023-03-02T11:00:36.880Z,3.20
2023-03-02T11:05:39.902Z,3.37
2023-03-02T11:10:52.364Z,3.47
2023-03-02T11:16:00.750Z,3.58
2023-03-02T11:21:07.747Z,3.32
2023-03-02T11:26:26.012Z,3.09
2023-03-02T11:31:34.078Z,3.15
2023-03-02T11:36:53.856Z,3.02
2023-03-02T11:41:55.619Z,3.23
2023-03-02T11:47:01.335Z,3.35
2023-03-02T11:52:03.242Z,3.18
2023-03-02T11:57:18.472Z,3.02
2023-03-02T12:02:20.667Z,3.16
2023-03-02T12:07:27.111Z,3.33
2023-03-02T12:12:47.687Z,3.56
2023-03-02T12:17:52.096Z,3.44
2023-03-02T12:22:54.385Z,3.66
2023-03-02T12:27:58.272Z,3.76
2023-03-02T12:33:21.073Z,3.91
2023-03-02T12:38:35.061Z,4.04
2023-03-02T12:43:38.605Z,3.87
2023-03-02T12:49:06.038Z,3.86
2023-03-02T12:54:16.708Z,3.94
2023-03-02T12:59:24.551Z,3.88
2023-03-02T13:04:27.375Z,3.93
2023-03-02T13:09:29.188Z,4.21
2023-03-02T13:14:36.287Z,4.08
2023-03-02T13:19:45.063Z,4.27
2023-03-02T13:25:02.030Z,4.34
2023-03-02T13:30:12.993Z,4.27
2023-03-02T13:35:31.861Z,4.37
2023-03-02T13:40:47.780Z,4.35
2023-03-02T13:46:01.404Z,4.32
2023-03-02T13:51:16.914Z,4.34
2023-03-02T13:56:24.072Z,4.40
2023-03-02T14:01:26.469Z,4.37
2023-03-02T14:06:31.623Z,4.25
2023-03-02T14:11:40.352Z,4.06
2023-03-02T14:16:42.433Z,4.13
2023-03-02T14:21:49.585Z,4.18
2023-03-02T14:26:53.552Z,4.06
2023-03-02T14:32:00.861Z,3.85
2023-03-02T14:37:08.299Z,3.68
2023-03-02T14:42:15.586Z,3.57
2023-03-02T14:47:19.767Z,3.55
2023-03-02T14:52:26.416Z,3.55
2023-03-02T14:57:30.412Z,3.51
2023-03-02T15:02:32.432Z,3.59
2023-03-02T15:07:37.194Z,3.46
2023-03-02T15:12:42.158Z,3.54
2023-03-02T15:17:48.203Z,3.31
2023-03-02T15:22:52.254Z,3.02
2023-03-02T15:27:56.963Z,3.08
2023-03-02T15:33:01.141Z,3.08
2023-03-02T15:38:04.548Z,2.99
2023-03-02T15:43:11.240Z,2.90
2023-03-02T15:48:13.760Z,2.79
2023-03-02T15:53:17.876Z,2.72
2023-03-02T15:58:22.224Z,2.66
2023-03-02T16:03:23.969Z,2.63
2023-03-02T16:08:28.676Z,2.68
2023-03-02T16:13:30.947Z,2.59
2023-03-02T16:18:37.391Z,2.52
2023-03-02T16:23:41.414Z,2.54
2023-03-02T16:28:43.361Z,2.53
2023-03-02T16:33:46.102Z,2.92
2023-03-02T16:38:50.556Z,2.80
2023-03-02T16:43:58.122Z,2.65
2023-03-02T16:49:02.549Z,2.56
2023-03-02T16:54:04.373Z,2.51
2023-03-02T16:59:06.190Z,2.44
2023-03-02T17:04:10.281Z,2.40
2023-03-02T17:09:13.496Z,2.38
2023-03-02T17:14:17.597Z,2.32
2023-03-02T17:19:19.784Z,2.35
2023-03-02T17:24:21.790Z,2.32
2023-03-02T17:29:23.705Z,2.34
2023-03-02T17:34:28.710Z,2.36
2023-03-02T17:39:33.097Z,2.35
2023-03-02T17:44:41.363Z,2.31
2023-03-02T17:49:46.321Z,2.27
2023-03-02T17:54:53.731Z,2.29
2023-03-02T17:59:57.444Z,2.33
2023-03-02T18:04:59.345Z,2.32
2023-03-02T18:10:01.007Z,2.33
2023-03-02T18:15:03.041Z,2.39
2023-03-02T18:20:10.125Z,2.40
2023-03-02T18:25:11.828Z,2.40
2023-03-02T18:30:13.823Z,2.72
2023-03-02T18:35:16.084Z,2.65
2023-03-02T18:40:17.822Z,2.63
2023-03-02T18:45:27.730Z,2.60
2023-03-02T18:50:30.297Z,2.60
2023-03-02T18:55:32.180Z,2.62
2023-03-02T19:00:35.015Z,2.58
2023-03-02T19:05:36.874Z,2.58
2023-03-02T19:10:44.329Z,2.56
2023-03-02T19:15:50.266Z,2.50
2023-03-02T19:21:06.605Z,2.40
2023-03-02T19:26:21.204Z,2.36
2023-03-02T19:31:46.963Z,2.34
2023-03-02T19:36:55.703Z,2.30
2023-03-02T19:41:57.416Z,2.21
2023-03-02T19:46:59.828Z,2.20
2023-03-02T19:52:01.524Z,2.19
2023-03-02T19:57:06.166Z,2.12
2023-03-02T20:02:11.281Z,2.16
2023-03-02T20:07:15.264Z,2.22
2023-03-02T20:12:17.225Z,2.26
2023-03-02T20:17:24.628Z,2.30
2023-03-02T20:22:27.597Z,2.27
2023-03-02T20:27:31.587Z,2.25
2023-03-02T20:32:35.644Z,2.25
2023-03-02T20:37:37.719Z,2.16
2023-03-02T20:42:40.663Z,2.02
2023-03-02T20:47:43.125Z,1.86
2023-03-02T20:52:45.536Z,1.79
2023-03-02T20:57:48.621Z,1.74
2023-03-02T21:02:50.473Z,1.67
2023-03-02T21:07:52.436Z,1.66
2023-03-02T21:12:56.200Z,1.68
2023-03-02T21:17:59.305Z,1.72
2023-03-02T21:23:01.084Z,1.63
2023-03-02T21:28:03.378Z,1.55
2023-03-02T21:33:05.127Z,1.51
2023-03-02T21:38:07.191Z,1.46
2023-03-02T21:43:09.513Z,1.44
2023-03-02T21:48:14.344Z,1.41
2023-03-02T21:53:19.447Z,1.34
2023-03-02T21:58:21.864Z,1.28
2023-03-02T22:03:23.775Z,1.27
2023-03-02T22:08:31.607Z,1.31
2023-03-02T22:13:37.315Z,1.19
2023-03-02T22:18:39.533Z,1.09
2023-03-02T22:23:41.250Z,1.03
2023-03-02T22:28:45.471Z,0.96
2023-03-02T22:33:48.468Z,1.01
2023-03-02T22:38:50.927Z,0.92
2023-03-02T22:43:53.020Z,0.91
2023-03-02T22:48:54.823Z,0.96
2023-03-02T22:54:00.840Z,1.02
2023-03-02T22:59:16.648Z,1.01
2023-03-02T23:04:25.632Z,0.98
2023-03-02T23:09:35.674Z,0.91
2023-03-02T23:14:49.573Z,0.96
2023-03-02T23:19:53.433Z,1.00
2023-03-02T23:24:57.493Z,1.02
2023-03-02T23:30:03.948Z,0.99
2023-03-02T23:35:08.302Z,0.98
2023-03-02T23:40:12.659Z,0.95
2023-03-02T23:45:15.885Z,0.85
2023-03-02T23:50:22.090Z,0.75
2023-03-02T23:55:26.850Z,0.71
